This is the latest recevied weather packets stored in our database for station/object W5HKR. If no packets are shown the sender has not sent any weather packets the latest 10 day(s).
| Time | Temp. | Humidity | Pressure | Rain* | Wind** | Luminosity | Snow |
|---|---|---|---|---|---|---|---|
| 1788146566 | 85° F | 62% | 739.9 mmHg | 0 in | - | - | - |
| 1788145486 | 86° F | 61% | 740.2 mmHg | 0 in | - | - | - |
| 1788144408 | 87° F | 61% | 739.5 mmHg | 0 in | - | - | - |
| 1788143327 | 87° F | 59% | 739.3 mmHg | 0 in | - | - | - |
| 1788142247 | 88° F | 59% | 738.9 mmHg | 0 in | - | - | - |
| 1788141167 | 88° F | 59% | 739 mmHg | 0 in | - | - | - |
| 1788140086 | 88° F | 58% | 738.7 mmHg | 0 in | - | - | - |
| 1788139008 | 89° F | 56% | 738.8 mmHg | 0 in | - | - | - |
| 1788137927 | 89° F | 56% | 738.7 mmHg | 0 in | - | - | - |
| 1788136848 | 91° F | 54% | 738.4 mmHg | 0 in | - | - | - |
| 1788135766 | 92° F | 49% | 738.2 mmHg | 0 in | - | - | - |
| 1788134688 | 94° F | 47% | 738.4 mmHg | 0 in | - | - | - |
| 1788133607 | 96° F | 45% | 738.6 mmHg | 0 in | - | - | - |
| 1788132527 | 98° F | 41% | 738.1 mmHg | 0 in | - | - | - |
| 1788131447 | 99° F | 41% | 738.5 mmHg | 0 in | - | - | - |
| 1788130368 | 96° F | 42% | 738.2 mmHg | 0 in | - | - | - |
| 1788129288 | 98° F | 42% | 738.4 mmHg | 0 in | - | - | - |
| 1788128208 | 99° F | 42% | 738.6 mmHg | 0 in | - | - | - |
| 1788127127 | 99° F | 44% | 738.7 mmHg | 0 in | - | - | - |
| 1788126047 | 99° F | 42% | 738.7 mmHg | 0 in | - | - | - |
| 1788124967 | 98° F | 43% | 738.7 mmHg | 0 in | - | - | - |
| 1788123887 | 98° F | 45% | 739.1 mmHg | 0 in | - | - | - |
| 1788122807 | 99° F | 44% | 739 mmHg | 0 in | - | - | - |
| 1788121727 | 97° F | 45% | 739.6 mmHg | 0 in | - | - | - |
| 1788120648 | 97° F | 46% | 739.9 mmHg | 0 in | - | - | - |
* Rain latest hour (hover to see other rain measurements)
** Current wind speed in m/s (hover to see current wind gust speed)